CDT,Max TemperatureF,Mean TemperatureF,Min TemperatureF,Max Dew PointF,MeanDew PointF,Min DewpointF,Max Humidity, Mean Humidity, Min Humidity, Max Sea Level PressureIn, Mean Sea Level PressureIn, Min Sea Level PressureIn, Max VisibilityMiles, Mean VisibilityMiles, Min VisibilityMiles, Max Wind SpeedMPH, Mean Wind SpeedMPH, Max Gust SpeedMPH,PrecipitationIn, CloudCover, Events, WindDirDegrees
2012-10-1,79,72,66,74,67,60,90,79,62,29.75,29.63,29.54,10,9,2,17,8,31,0.51,6,Rain,226
2012-10-2,80,72,64,61,59,56,88,75,43,30.02,29.85,29.75,10,10,10,12,5,,0.00,5,,282
2012-10-3,81,70,61,65,61,59,93,71,48,30.15,30.09,30.03,10,10,9,13,5,,0.00,0,,84
2012-10-4,86,75,64,66,63,61,90,68,44,30.25,30.19,30.15,10,10,10,9,6,,0.00,0,,38
2012-10-5,87,75,64,72,66,61,93,76,49,30.17,30.09,30.01,10,10,7,8,4,,0.00,1,,347
2012-10-6,88,76,66,68,66,61,96,76,41,30.04,30.01,29.94,10,8,1,9,2,,0.00,1,Fog,353
2012-10-7,75,68,59,62,57,51,86,72,55,30.12,30.06,30.02,10,10,10,15,11,21,0.00,3,,352
2012-10-8,78,66,54,55,51,47,83,63,45,30.14,30.10,30.05,10,10,10,14,10,17,0.00,1,,350
2012-10-9,79,66,53,60,54,50,90,72,43,30.16,30.10,30.04,10,10,9,9,6,,0.00,0,,336
2012-10-10,82,70,57,63,60,55,94,74,48,30.18,30.14,30.09,10,10,9,9,3,,0.01,1,,1
2012-10-11,84,73,62,64,62,60,93,75,46,30.26,30.21,30.17,10,9,6,7,2,,0.00,0,,26
2012-10-12,84,72,63,65,62,60,93,78,47,30.28,30.22,30.19,10,9,6,6,2,,0.01,0,,297
2012-10-13,84,72,62,71,64,60,93,77,56,30.26,30.20,30.15,10,9,6,10,3,,0.00,0,,160
2012-10-14,84,77,72,72,70,68,93,80,67,30.17,30.09,30.01,10,10,10,10,6,,0.00,1,,123
2012-10-15,87,74,60,71,63,53,93,69,38,30.01,29.97,29.91,10,10,10,15,5,20,0.01,2,,329
2012-10-16,78,66,55,55,50,45,86,56,31,30.02,29.95,29.88,10,10,10,10,4,,0.00,0,,43
2012-10-17,79,70,62,66,60,50,75,64,49,29.92,29.86,29.81,10,10,10,13,7,17,0.00,2,,139
2012-10-18,78,68,55,72,65,50,90,77,62,29.91,29.82,29.76,10,10,2,14,7,18,0.23,5,Rain,199
2012-10-19,80,66,51,48,43,33,86,52,19,29.96,29.91,29.85,10,10,10,9,5,,0.00,0,,283
2012-10-20,81,64,46,55,48,39,90,67,22,30.03,29.98,29.93,10,10,10,7,3,,0.00,0,,234
2012-10-21,82,66,52,57,52,47,93,67,30,30.14,30.09,30.03,10,10,9,7,2,,0.01,0,,29
2012-10-22,81,68,54,63,56,50,90,70,34,30.17,30.12,30.08,10,10,10,9,4,,0.00,0,,24
2012-10-23,82,70,59,66,61,56,93,76,51,30.14,30.08,30.04,10,10,10,12,5,,0.01,1,,88
2012-10-24,84,72,61,66,62,58,94,76,46,30.12,30.06,30.01,10,10,8,7,4,,0.00,1,,23
2012-10-25,84,72,60,68,62,57,94,80,49,30.02,29.99,29.95,10,10,5,6,4,,0.01,1,,353
2012-10-26,88,74,63,66,62,59,93,70,41,30.00,29.95,29.89,10,10,10,15,6,,0.01,1,,350
2012-10-27,69,62,54,63,50,43,81,74,64,29.99,29.96,29.93,10,10,10,21,16,31,0.00,7,,338
2012-10-28,68,57,48,45,40,36,80,57,33,30.10,30.00,29.94,10,10,10,23,13,30,0.00,2,,320
2012-10-29,64,53,42,37,33,28,76,50,28,30.14,30.08,30.00,10,10,10,21,12,30,0.00,0,,322
2012-10-30,69,56,44,40,33,28,61,47,25,30.09,30.04,29.96,10,10,10,13,8,23,0.00,0,,293
2012-10-31,78,64,51,60,47,39,84,58,32,30.07,30.01,29.96,10,10,10,8,5,,0.00,1,,255